< < Back
Terminal Aerodrome Forecast


Current Version              Previous Versions:   1  2  3  4  5  6  7  8  9  

Terminal Aerodrome Forecast

600
FTUS42 KMLB 261536 AAA
TAFMCO
TAF AMD
KMCO 261536Z 2616/2712 VRB04KT P6SM SCT025
     FM262000 10006KT P6SM VCTS SCT030CB BKN100
     FM270000 14005KT P6SM FEW030 SCT120 BKN250=

Latest METAR

355
SAUS70 KWBC 261958
MTRMCO
METAR KMCO 261953Z 19006KT 10SM TS FEW014 SCT050CB BKN110 BKN150 23/21
A2994 RMK AO2 LTG DSNT ALQDS RAE32 SLP138 FRQ LTGICCG E-SE TS
E-SE MOV SE CB SW MOV SE P0000 T02330211


USA.gov is the U.S. government's official web portal to all federal, state and local government web resources and services.